sensor_id;sensor_type;location;lat;lon;timestamp;P1;durP1;ratioP1;P2;durP2;ratioP2
58250;SDS011;51449;51.676;5.812;2022-07-29T00:00:44;4.63;;;2.00;;
58250;SDS011;51449;51.676;5.812;2022-07-29T00:03:06;3.43;;;1.57;;
58250;SDS011;51449;51.676;5.812;2022-07-29T00:05:28;2.83;;;1.40;;
58250;SDS011;51449;51.676;5.812;2022-07-29T00:07:50;5.80;;;1.90;;
58250;SDS011;51449;51.676;5.812;2022-07-29T00:10:12;2.73;;;1.60;;
58250;SDS011;51449;51.676;5.812;2022-07-29T00:12:34;4.50;;;1.63;;
58250;SDS011;51449;51.676;5.812;2022-07-29T00:14:56;4.83;;;1.70;;
58250;SDS011;51449;51.676;5.812;2022-07-29T00:17:18;3.53;;;1.60;;
58250;SDS011;51449;51.676;5.812;2022-07-29T00:19:40;4.47;;;1.70;;
58250;SDS011;51449;51.676;5.812;2022-07-29T00:22:05;4.57;;;1.97;;
58250;SDS011;51449;51.676;5.812;2022-07-29T00:24:27;2.90;;;1.60;;
58250;SDS011;51449;51.676;5.812;2022-07-29T00:26:49;3.83;;;1.73;;
58250;SDS011;51449;51.676;5.812;2022-07-29T00:29:11;3.93;;;1.43;;
58250;SDS011;51449;51.676;5.812;2022-07-29T00:31:53;4.77;;;1.77;;
58250;SDS011;51449;51.676;5.812;2022-07-29T00:34:15;4.73;;;1.60;;
58250;SDS011;51449;51.676;5.812;2022-07-29T00:36:56;3.57;;;1.50;;
58250;SDS011;51449;51.676;5.812;2022-07-29T00:39:19;6.33;;;1.80;;
58250;SDS011;51449;51.676;5.812;2022-07-29T00:41:40;3.83;;;1.50;;
58250;SDS011;51449;51.676;5.812;2022-07-29T00:44:02;3.60;;;1.90;;
58250;SDS011;51449;51.676;5.812;2022-07-29T00:46:24;3.17;;;1.80;;
58250;SDS011;51449;51.676;5.812;2022-07-29T00:48:46;4.03;;;2.00;;
58250;SDS011;51449;51.676;5.812;2022-07-29T00:51:08;3.70;;;1.70;;
58250;SDS011;51449;51.676;5.812;2022-07-29T00:53:31;2.33;;;1.53;;
58250;SDS011;51449;51.676;5.812;2022-07-29T00:55:53;4.00;;;1.90;;
58250;SDS011;51449;51.676;5.812;2022-07-29T00:58:16;5.00;;;2.00;;
58250;SDS011;51449;51.676;5.812;2022-07-29T01:00:38;3.70;;;2.10;;
58250;SDS011;51449;51.676;5.812;2022-07-29T01:03:02;12.93;;;3.43;;
58250;SDS011;51449;51.676;5.812;2022-07-29T01:05:26;6.90;;;2.30;;
58250;SDS011;51449;51.676;5.812;2022-07-29T01:08:10;4.88;;;2.70;;
58250;SDS011;51449;51.676;5.812;2022-07-29T01:10:34;7.93;;;2.67;;
58250;SDS011;51449;51.676;5.812;2022-07-29T01:13:00;4.93;;;2.53;;
58250;SDS011;51449;51.676;5.812;2022-07-29T01:15:28;5.40;;;2.70;;
58250;SDS011;51449;51.676;5.812;2022-07-29T01:17:57;5.70;;;2.40;;
58250;SDS011;51449;51.676;5.812;2022-07-29T01:23:34;5.73;;;2.87;;
58250;SDS011;51449;51.676;5.812;2022-07-29T01:32:01;5.87;;;3.10;;
58250;SDS011;51449;51.676;5.812;2022-07-29T01:40:42;6.60;;;3.88;;
58250;SDS011;51449;51.676;5.812;2022-07-29T01:43:11;7.20;;;4.17;;
58250;SDS011;51449;51.676;5.812;2022-07-29T01:48:24;5.43;;;3.70;;
58250;SDS011;51449;51.676;5.812;2022-07-29T01:51:02;5.77;;;4.03;;
58250;SDS011;51449;51.676;5.812;2022-07-29T01:53:44;6.57;;;3.63;;
58250;SDS011;51449;51.676;5.812;2022-07-29T01:56:08;6.73;;;4.23;;
58250;SDS011;51449;51.676;5.812;2022-07-29T01:58:35;6.73;;;4.40;;
58250;SDS011;51449;51.676;5.812;2022-07-29T02:01:01;6.87;;;4.80;;
58250;SDS011;51449;51.676;5.812;2022-07-29T02:03:26;7.67;;;4.97;;
58250;SDS011;51449;51.676;5.812;2022-07-29T02:05:51;7.20;;;5.10;;
58250;SDS011;51449;51.676;5.812;2022-07-29T02:08:16;7.97;;;4.77;;
58250;SDS011;51449;51.676;5.812;2022-07-29T02:10:41;7.80;;;4.40;;
58250;SDS011;51449;51.676;5.812;2022-07-29T02:13:05;9.93;;;4.97;;
58250;SDS011;51449;51.676;5.812;2022-07-29T02:15:32;8.73;;;5.87;;
58250;SDS011;51449;51.676;5.812;2022-07-29T02:18:01;8.10;;;5.37;;
58250;SDS011;51449;51.676;5.812;2022-07-29T02:20:28;7.67;;;4.80;;
58250;SDS011;51449;51.676;5.812;2022-07-29T02:25:17;9.53;;;6.30;;
58250;SDS011;51449;51.676;5.812;2022-07-29T02:27:42;8.00;;;5.63;;
58250;SDS011;51449;51.676;5.812;2022-07-29T02:30:05;8.80;;;5.00;;
58250;SDS011;51449;51.676;5.812;2022-07-29T02:32:29;8.75;;;5.32;;
58250;SDS011;51449;51.676;5.812;2022-07-29T02:34:55;8.23;;;4.90;;
58250;SDS011;51449;51.676;5.812;2022-07-29T02:39:43;6.47;;;5.10;;
58250;SDS011;51449;51.676;5.812;2022-07-29T02:42:10;9.53;;;4.80;;
58250;SDS011;51449;51.676;5.812;2022-07-29T02:44:36;6.83;;;4.87;;
58250;SDS011;51449;51.676;5.812;2022-07-29T02:47:02;4.50;;;4.07;;
58250;SDS011;51449;51.676;5.812;2022-07-29T02:55:10;5.47;;;4.43;;
58250;SDS011;51449;51.676;5.812;2022-07-29T02:57:42;7.60;;;4.20;;
58250;SDS011;51449;51.676;5.812;2022-07-29T03:00:15;6.87;;;4.13;;
58250;SDS011;51449;51.676;5.812;2022-07-29T03:02:40;7.20;;;4.60;;
58250;SDS011;51449;51.676;5.812;2022-07-29T03:05:06;6.43;;;4.30;;
58250;SDS011;51449;51.676;5.812;2022-07-29T03:07:32;6.43;;;4.53;;
58250;SDS011;51449;51.676;5.812;2022-07-29T03:09:56;5.68;;;4.45;;
58250;SDS011;51449;51.676;5.812;2022-07-29T03:12:20;5.90;;;4.30;;
58250;SDS011;51449;51.676;5.812;2022-07-29T03:14:43;7.10;;;4.57;;
58250;SDS011;51449;51.676;5.812;2022-07-29T03:17:08;6.28;;;4.45;;
58250;SDS011;51449;51.676;5.812;2022-07-29T03:19:31;4.53;;;3.90;;
58250;SDS011;51449;51.676;5.812;2022-07-29T03:21:56;7.00;;;4.25;;
58250;SDS011;51449;51.676;5.812;2022-07-29T03:24:26;6.63;;;4.22;;
58250;SDS011;51449;51.676;5.812;2022-07-29T03:26:51;7.00;;;4.13;;
58250;SDS011;51449;51.676;5.812;2022-07-29T03:29:13;5.80;;;4.80;;
58250;SDS011;51449;51.676;5.812;2022-07-29T03:31:35;5.97;;;4.70;;
58250;SDS011;51449;51.676;5.812;2022-07-29T03:33:57;8.07;;;4.90;;
58250;SDS011;51449;51.676;5.812;2022-07-29T03:36:19;6.53;;;4.83;;
58250;SDS011;51449;51.676;5.812;2022-07-29T03:38:41;7.83;;;5.40;;
58250;SDS011;51449;51.676;5.812;2022-07-29T03:41:07;6.57;;;4.80;;
58250;SDS011;51449;51.676;5.812;2022-07-29T03:43:34;6.13;;;5.23;;
58250;SDS011;51449;51.676;5.812;2022-07-29T03:46:10;5.40;;;4.60;;
58250;SDS011;51449;51.676;5.812;2022-07-29T03:48:36;8.07;;;5.00;;
58250;SDS011;51449;51.676;5.812;2022-07-29T03:51:03;6.47;;;5.23;;
58250;SDS011;51449;51.676;5.812;2022-07-29T03:53:27;5.75;;;5.20;;
58250;SDS011;51449;51.676;5.812;2022-07-29T03:55:52;5.33;;;4.67;;
58250;SDS011;51449;51.676;5.812;2022-07-29T03:58:20;6.43;;;5.17;;
58250;SDS011;51449;51.676;5.812;2022-07-29T04:00:44;5.82;;;5.05;;
58250;SDS011;51449;51.676;5.812;2022-07-29T04:03:07;6.03;;;4.90;;
58250;SDS011;51449;51.676;5.812;2022-07-29T04:05:32;6.53;;;5.63;;
58250;SDS011;51449;51.676;5.812;2022-07-29T04:07:54;6.27;;;5.27;;
58250;SDS011;51449;51.676;5.812;2022-07-29T04:10:18;6.07;;;5.33;;
58250;SDS011;51449;51.676;5.812;2022-07-29T04:12:51;6.53;;;5.17;;
58250;SDS011;51449;51.676;5.812;2022-07-29T04:15:14;7.70;;;5.23;;
58250;SDS011;51449;51.676;5.812;2022-07-29T04:17:36;7.87;;;5.80;;
58250;SDS011;51449;51.676;5.812;2022-07-29T04:19:58;9.47;;;5.67;;
58250;SDS011;51449;51.676;5.812;2022-07-29T04:22:20;6.50;;;5.87;;
58250;SDS011;51449;51.676;5.812;2022-07-29T04:24:43;8.07;;;5.67;;
58250;SDS011;51449;51.676;5.812;2022-07-29T04:27:05;8.30;;;5.87;;
58250;SDS011;51449;51.676;5.812;2022-07-29T04:29:26;6.83;;;6.13;;
58250;SDS011;51449;51.676;5.812;2022-07-29T04:31:48;7.93;;;6.00;;
58250;SDS011;51449;51.676;5.812;2022-07-29T04:34:11;8.97;;;5.90;;
58250;SDS011;51449;51.676;5.812;2022-07-29T04:36:34;8.83;;;6.30;;
58250;SDS011;51449;51.676;5.812;2022-07-29T04:38:56;7.53;;;6.60;;
58250;SDS011;51449;51.676;5.812;2022-07-29T04:41:18;9.73;;;6.47;;
58250;SDS011;51449;51.676;5.812;2022-07-29T04:43:41;8.90;;;6.60;;
58250;SDS011;51449;51.676;5.812;2022-07-29T04:46:03;9.67;;;6.47;;
58250;SDS011;51449;51.676;5.812;2022-07-29T04:48:27;7.93;;;6.68;;
58250;SDS011;51449;51.676;5.812;2022-07-29T04:50:49;11.50;;;7.30;;
58250;SDS011;51449;51.676;5.812;2022-07-29T04:53:11;9.17;;;7.27;;
58250;SDS011;51449;51.676;5.812;2022-07-29T04:55:33;8.33;;;7.03;;
58250;SDS011;51449;51.676;5.812;2022-07-29T04:57:59;8.77;;;6.83;;
58250;SDS011;51449;51.676;5.812;2022-07-29T05:00:22;9.40;;;7.20;;
58250;SDS011;51449;51.676;5.812;2022-07-29T05:02:53;9.70;;;7.40;;
58250;SDS011;51449;51.676;5.812;2022-07-29T05:05:15;9.93;;;7.07;;
58250;SDS011;51449;51.676;5.812;2022-07-29T05:07:37;8.60;;;7.80;;
58250;SDS011;51449;51.676;5.812;2022-07-29T05:09:59;9.17;;;7.30;;
58250;SDS011;51449;51.676;5.812;2022-07-29T05:12:21;11.00;;;8.00;;
58250;SDS011;51449;51.676;5.812;2022-07-29T05:14:43;10.50;;;7.57;;
58250;SDS011;51449;51.676;5.812;2022-07-29T05:17:05;8.83;;;7.23;;
58250;SDS011;51449;51.676;5.812;2022-07-29T05:19:27;10.83;;;8.07;;
58250;SDS011;51449;51.676;5.812;2022-07-29T05:21:48;10.20;;;8.47;;
58250;SDS011;51449;51.676;5.812;2022-07-29T05:24:11;8.00;;;7.17;;
58250;SDS011;51449;51.676;5.812;2022-07-29T05:26:33;10.53;;;7.87;;
58250;SDS011;51449;51.676;5.812;2022-07-29T05:28:55;11.57;;;7.10;;
58250;SDS011;51449;51.676;5.812;2022-07-29T05:31:18;9.33;;;7.13;;
58250;SDS011;51449;51.676;5.812;2022-07-29T05:33:40;9.43;;;7.90;;
58250;SDS011;51449;51.676;5.812;2022-07-29T05:36:06;11.57;;;7.93;;
58250;SDS011;51449;51.676;5.812;2022-07-29T05:38:28;8.53;;;7.33;;
58250;SDS011;51449;51.676;5.812;2022-07-29T05:40:50;8.90;;;7.87;;
58250;SDS011;51449;51.676;5.812;2022-07-29T05:43:12;8.07;;;7.27;;
58250;SDS011;51449;51.676;5.812;2022-07-29T05:45:34;10.57;;;7.73;;
58250;SDS011;51449;51.676;5.812;2022-07-29T05:48:10;8.77;;;7.40;;
58250;SDS011;51449;51.676;5.812;2022-07-29T05:50:32;8.20;;;7.00;;
58250;SDS011;51449;51.676;5.812;2022-07-29T05:52:54;9.37;;;7.90;;
58250;SDS011;51449;51.676;5.812;2022-07-29T05:55:16;9.00;;;8.07;;
58250;SDS011;51449;51.676;5.812;2022-07-29T05:57:38;11.37;;;7.90;;
58250;SDS011;51449;51.676;5.812;2022-07-29T06:00:01;8.23;;;7.40;;
58250;SDS011;51449;51.676;5.812;2022-07-29T06:02:32;11.00;;;7.77;;
58250;SDS011;51449;51.676;5.812;2022-07-29T06:04:54;8.00;;;7.03;;
58250;SDS011;51449;51.676;5.812;2022-07-29T06:07:16;9.33;;;7.80;;
58250;SDS011;51449;51.676;5.812;2022-07-29T06:09:38;10.13;;;8.13;;
58250;SDS011;51449;51.676;5.812;2022-07-29T06:12:00;11.37;;;7.93;;
58250;SDS011;51449;51.676;5.812;2022-07-29T06:14:22;11.17;;;8.17;;
58250;SDS011;51449;51.676;5.812;2022-07-29T06:16:44;10.57;;;7.40;;
58250;SDS011;51449;51.676;5.812;2022-07-29T06:19:06;8.80;;;7.90;;
58250;SDS011;51449;51.676;5.812;2022-07-29T06:21:29;9.00;;;7.90;;
58250;SDS011;51449;51.676;5.812;2022-07-29T06:23:51;8.70;;;7.33;;
58250;SDS011;51449;51.676;5.812;2022-07-29T06:26:13;10.87;;;7.80;;
58250;SDS011;51449;51.676;5.812;2022-07-29T06:28:35;8.80;;;7.37;;
58250;SDS011;51449;51.676;5.812;2022-07-29T06:30:57;8.73;;;7.33;;
58250;SDS011;51449;51.676;5.812;2022-07-29T06:33:19;9.47;;;7.40;;
58250;SDS011;51449;51.676;5.812;2022-07-29T06:35:41;9.80;;;7.70;;
58250;SDS011;51449;51.676;5.812;2022-07-29T06:38:14;10.50;;;7.63;;
58250;SDS011;51449;51.676;5.812;2022-07-29T06:40:54;12.20;;;8.00;;
58250;SDS011;51449;51.676;5.812;2022-07-29T06:43:23;9.40;;;7.53;;
58250;SDS011;51449;51.676;5.812;2022-07-29T06:45:46;8.97;;;7.57;;
58250;SDS011;51449;51.676;5.812;2022-07-29T06:48:09;11.03;;;7.67;;
58250;SDS011;51449;51.676;5.812;2022-07-29T06:50:31;9.33;;;8.00;;
58250;SDS011;51449;51.676;5.812;2022-07-29T06:52:53;9.17;;;7.43;;
58250;SDS011;51449;51.676;5.812;2022-07-29T06:55:14;9.43;;;8.27;;
58250;SDS011;51449;51.676;5.812;2022-07-29T06:57:45;11.00;;;7.30;;
58250;SDS011;51449;51.676;5.812;2022-07-29T07:00:11;11.50;;;7.77;;
58250;SDS011;51449;51.676;5.812;2022-07-29T07:02:34;9.20;;;8.23;;
58250;SDS011;51449;51.676;5.812;2022-07-29T07:04:56;10.33;;;8.50;;
58250;SDS011;51449;51.676;5.812;2022-07-29T07:07:18;10.27;;;8.77;;
58250;SDS011;51449;51.676;5.812;2022-07-29T07:09:41;9.53;;;8.50;;
58250;SDS011;51449;51.676;5.812;2022-07-29T07:12:03;9.70;;;8.23;;
58250;SDS011;51449;51.676;5.812;2022-07-29T07:14:25;10.77;;;8.07;;
58250;SDS011;51449;51.676;5.812;2022-07-29T07:16:48;9.70;;;7.73;;
58250;SDS011;51449;51.676;5.812;2022-07-29T07:19:13;8.80;;;7.80;;
58250;SDS011;51449;51.676;5.812;2022-07-29T07:21:34;9.53;;;7.73;;
58250;SDS011;51449;51.676;5.812;2022-07-29T07:23:57;11.97;;;8.20;;
58250;SDS011;51449;51.676;5.812;2022-07-29T07:26:20;9.02;;;6.93;;
58250;SDS011;51449;51.676;5.812;2022-07-29T07:28:42;10.17;;;6.73;;
58250;SDS011;51449;51.676;5.812;2022-07-29T07:31:04;8.70;;;6.53;;
58250;SDS011;51449;51.676;5.812;2022-07-29T07:33:26;8.27;;;6.90;;
58250;SDS011;51449;51.676;5.812;2022-07-29T07:35:48;7.77;;;7.07;;
58250;SDS011;51449;51.676;5.812;2022-07-29T07:38:10;9.63;;;7.10;;
58250;SDS011;51449;51.676;5.812;2022-07-29T07:40:32;9.57;;;7.17;;
58250;SDS011;51449;51.676;5.812;2022-07-29T07:42:54;11.00;;;7.20;;
58250;SDS011;51449;51.676;5.812;2022-07-29T07:45:16;7.70;;;6.30;;
58250;SDS011;51449;51.676;5.812;2022-07-29T07:47:38;7.83;;;6.83;;
58250;SDS011;51449;51.676;5.812;2022-07-29T07:50:00;11.10;;;6.23;;
58250;SDS011;51449;51.676;5.812;2022-07-29T07:52:22;9.97;;;6.03;;
58250;SDS011;51449;51.676;5.812;2022-07-29T07:54:44;8.00;;;6.87;;
58250;SDS011;51449;51.676;5.812;2022-07-29T07:57:06;7.20;;;6.50;;
58250;SDS011;51449;51.676;5.812;2022-07-29T07:59:28;8.50;;;6.47;;
58250;SDS011;51449;51.676;5.812;2022-07-29T08:01:50;7.13;;;6.43;;
58250;SDS011;51449;51.676;5.812;2022-07-29T08:04:16;9.27;;;6.40;;
58250;SDS011;51449;51.676;5.812;2022-07-29T08:06:47;7.33;;;6.10;;
58250;SDS011;51449;51.676;5.812;2022-07-29T08:09:11;7.45;;;6.22;;
58250;SDS011;51449;51.676;5.812;2022-07-29T08:11:49;9.87;;;6.60;;
58250;SDS011;51449;51.676;5.812;2022-07-29T08:14:12;11.27;;;7.00;;
58250;SDS011;51449;51.676;5.812;2022-07-29T08:16:35;9.67;;;7.30;;
58250;SDS011;51449;51.676;5.812;2022-07-29T08:18:57;9.10;;;6.40;;
58250;SDS011;51449;51.676;5.812;2022-07-29T08:21:19;10.60;;;6.73;;
58250;SDS011;51449;51.676;5.812;2022-07-29T08:23:41;8.20;;;6.47;;
58250;SDS011;51449;51.676;5.812;2022-07-29T08:26:20;7.57;;;5.83;;
58250;SDS011;51449;51.676;5.812;2022-07-29T08:28:44;8.20;;;6.53;;
58250;SDS011;51449;51.676;5.812;2022-07-29T08:31:10;9.70;;;6.53;;
58250;SDS011;51449;51.676;5.812;2022-07-29T08:33:32;9.80;;;6.50;;
58250;SDS011;51449;51.676;5.812;2022-07-29T08:35:54;8.13;;;6.23;;
58250;SDS011;51449;51.676;5.812;2022-07-29T08:38:16;7.80;;;5.90;;
58250;SDS011;51449;51.676;5.812;2022-07-29T08:40:38;7.97;;;5.90;;
58250;SDS011;51449;51.676;5.812;2022-07-29T08:43:07;9.83;;;6.80;;
58250;SDS011;51449;51.676;5.812;2022-07-29T08:45:30;6.87;;;6.00;;
58250;SDS011;51449;51.676;5.812;2022-07-29T08:48:08;8.17;;;6.37;;
58250;SDS011;51449;51.676;5.812;2022-07-29T08:50:30;10.33;;;7.10;;
58250;SDS011;51449;51.676;5.812;2022-07-29T08:52:52;8.47;;;5.80;;
58250;SDS011;51449;51.676;5.812;2022-07-29T08:55:20;6.53;;;5.37;;
58250;SDS011;51449;51.676;5.812;2022-07-29T08:57:42;6.60;;;5.40;;
58250;SDS011;51449;51.676;5.812;2022-07-29T09:00:14;8.60;;;5.53;;
58250;SDS011;51449;51.676;5.812;2022-07-29T09:02:39;8.00;;;5.60;;
58250;SDS011;51449;51.676;5.812;2022-07-29T09:05:08;6.20;;;5.50;;
58250;SDS011;51449;51.676;5.812;2022-07-29T09:07:31;6.72;;;5.45;;
58250;SDS011;51449;51.676;5.812;2022-07-29T09:09:55;8.60;;;5.93;;
58250;SDS011;51449;51.676;5.812;2022-07-29T09:12:17;8.48;;;6.25;;
58250;SDS011;51449;51.676;5.812;2022-07-29T09:14:50;8.85;;;6.00;;
58250;SDS011;51449;51.676;5.812;2022-07-29T09:17:12;7.90;;;5.70;;
58250;SDS011;51449;51.676;5.812;2022-07-29T09:19:38;7.25;;;5.72;;
58250;SDS011;51449;51.676;5.812;2022-07-29T09:22:06;6.85;;;6.13;;
58250;SDS011;51449;51.676;5.812;2022-07-29T09:27:10;7.65;;;6.20;;
58250;SDS011;51449;51.676;5.812;2022-07-29T09:29:38;7.03;;;6.30;;
58250;SDS011;51449;51.676;5.812;2022-07-29T09:32:00;8.68;;;6.40;;
58250;SDS011;51449;51.676;5.812;2022-07-29T09:34:30;9.50;;;6.63;;
58250;SDS011;51449;51.676;5.812;2022-07-29T09:36:53;7.35;;;5.57;;
58250;SDS011;51449;51.676;5.812;2022-07-29T09:39:26;8.07;;;6.30;;
58250;SDS011;51449;51.676;5.812;2022-07-29T09:42:01;8.32;;;6.10;;
58250;SDS011;51449;51.676;5.812;2022-07-29T09:44:26;10.77;;;6.18;;
58250;SDS011;51449;51.676;5.812;2022-07-29T09:46:58;8.38;;;5.97;;
58250;SDS011;51449;51.676;5.812;2022-07-29T09:49:29;10.10;;;6.38;;
58250;SDS011;51449;51.676;5.812;2022-07-29T09:54:32;8.63;;;5.90;;
58250;SDS011;51449;51.676;5.812;2022-07-29T09:57:23;8.75;;;6.97;;
58250;SDS011;51449;51.676;5.812;2022-07-29T10:00:12;7.97;;;6.32;;
58250;SDS011;51449;51.676;5.812;2022-07-29T10:02:58;6.85;;;6.13;;
58250;SDS011;51449;51.676;5.812;2022-07-29T10:05:24;6.18;;;4.90;;
58250;SDS011;51449;51.676;5.812;2022-07-29T10:07:57;6.10;;;4.10;;
58250;SDS011;51449;51.676;5.812;2022-07-29T10:10:29;6.80;;;5.13;;
58250;SDS011;51449;51.676;5.812;2022-07-29T10:12:56;7.70;;;5.35;;
58250;SDS011;51449;51.676;5.812;2022-07-29T10:15:30;7.82;;;4.18;;
58250;SDS011;51449;51.676;5.812;2022-07-29T10:17:58;6.07;;;4.05;;
58250;SDS011;51449;51.676;5.812;2022-07-29T10:20:22;8.65;;;4.60;;
58250;SDS011;51449;51.676;5.812;2022-07-29T10:22:44;8.77;;;4.57;;
58250;SDS011;51449;51.676;5.812;2022-07-29T10:25:14;8.23;;;5.13;;
58250;SDS011;51449;51.676;5.812;2022-07-29T10:27:39;5.75;;;4.93;;
58250;SDS011;51449;51.676;5.812;2022-07-29T10:30:02;6.95;;;5.40;;
58250;SDS011;51449;51.676;5.812;2022-07-29T10:49:17;6.28;;;4.68;;
58250;SDS011;51449;51.676;5.812;2022-07-29T10:51:55;7.93;;;4.43;;
58250;SDS011;51449;51.676;5.812;2022-07-29T11:02:41;7.22;;;3.78;;
58250;SDS011;51449;51.676;5.812;2022-07-29T11:05:06;7.72;;;3.30;;
58250;SDS011;51449;51.676;5.812;2022-07-29T11:08:01;9.38;;;3.63;;
58250;SDS011;51449;51.676;5.812;2022-07-29T11:10:50;6.07;;;3.58;;
58250;SDS011;51449;51.676;5.812;2022-07-29T11:16:19;5.13;;;3.85;;
58250;SDS011;51449;51.676;5.812;2022-07-29T11:21:38;5.57;;;3.30;;
58250;SDS011;51449;51.676;5.812;2022-07-29T11:24:26;6.72;;;3.60;;
58250;SDS011;51449;51.676;5.812;2022-07-29T11:29:56;5.70;;;4.20;;
58250;SDS011;51449;51.676;5.812;2022-07-29T11:32:24;5.25;;;4.20;;
58250;SDS011;51449;51.676;5.812;2022-07-29T11:38:26;7.60;;;5.07;;
58250;SDS011;51449;51.676;5.812;2022-07-29T11:43:47;7.15;;;4.10;;
58250;SDS011;51449;51.676;5.812;2022-07-29T11:49:21;6.43;;;4.50;;
58250;SDS011;51449;51.676;5.812;2022-07-29T11:51:53;8.75;;;4.68;;
58250;SDS011;51449;51.676;5.812;2022-07-29T11:54:22;6.80;;;4.45;;
58250;SDS011;51449;51.676;5.812;2022-07-29T11:56:48;6.47;;;4.50;;
58250;SDS011;51449;51.676;5.812;2022-07-29T11:59:12;8.38;;;4.20;;
58250;SDS011;51449;51.676;5.812;2022-07-29T12:01:36;4.65;;;4.25;;
58250;SDS011;51449;51.676;5.812;2022-07-29T12:04:02;7.53;;;4.40;;
58250;SDS011;51449;51.676;5.812;2022-07-29T12:06:27;5.65;;;4.00;;
58250;SDS011;51449;51.676;5.812;2022-07-29T12:08:49;7.60;;;4.40;;
58250;SDS011;51449;51.676;5.812;2022-07-29T12:11:15;5.95;;;4.32;;
58250;SDS011;51449;51.676;5.812;2022-07-29T12:13:43;7.18;;;4.70;;
58250;SDS011;51449;51.676;5.812;2022-07-29T12:16:05;6.68;;;4.90;;
58250;SDS011;51449;51.676;5.812;2022-07-29T12:18:27;6.60;;;4.25;;
58250;SDS011;51449;51.676;5.812;2022-07-29T12:20:56;8.77;;;4.93;;
58250;SDS011;51449;51.676;5.812;2022-07-29T12:23:24;4.70;;;4.03;;
58250;SDS011;51449;51.676;5.812;2022-07-29T12:25:49;6.15;;;5.15;;
58250;SDS011;51449;51.676;5.812;2022-07-29T12:28:14;6.60;;;5.15;;
58250;SDS011;51449;51.676;5.812;2022-07-29T12:30:48;5.32;;;4.38;;
58250;SDS011;51449;51.676;5.812;2022-07-29T12:33:13;9.05;;;4.97;;
58250;SDS011;51449;51.676;5.812;2022-07-29T12:35:51;7.38;;;4.72;;
58250;SDS011;51449;51.676;5.812;2022-07-29T12:38:32;6.75;;;5.45;;
58250;SDS011;51449;51.676;5.812;2022-07-29T12:43:19;8.32;;;5.20;;
58250;SDS011;51449;51.676;5.812;2022-07-29T12:45:47;7.57;;;4.80;;
58250;SDS011;51449;51.676;5.812;2022-07-29T12:48:32;7.50;;;4.57;;
58250;SDS011;51449;51.676;5.812;2022-07-29T12:51:01;4.68;;;3.70;;
58250;SDS011;51449;51.676;5.812;2022-07-29T12:53:25;9.50;;;4.70;;
58250;SDS011;51449;51.676;5.812;2022-07-29T12:55:48;6.53;;;3.55;;
58250;SDS011;51449;51.676;5.812;2022-07-29T12:58:12;5.90;;;3.97;;
58250;SDS011;51449;51.676;5.812;2022-07-29T13:00:35;7.40;;;3.50;;
58250;SDS011;51449;51.676;5.812;2022-07-29T13:02:57;4.82;;;3.40;;
58250;SDS011;51449;51.676;5.812;2022-07-29T13:05:22;6.93;;;4.45;;
58250;SDS011;51449;51.676;5.812;2022-07-29T13:07:45;4.07;;;3.65;;
58250;SDS011;51449;51.676;5.812;2022-07-29T13:10:18;6.00;;;3.20;;
58250;SDS011;51449;51.676;5.812;2022-07-29T13:13:01;3.72;;;2.83;;
58250;SDS011;51449;51.676;5.812;2022-07-29T13:15:32;4.50;;;2.63;;
58250;SDS011;51449;51.676;5.812;2022-07-29T13:17:54;4.47;;;2.97;;
58250;SDS011;51449;51.676;5.812;2022-07-29T13:20:16;4.95;;;3.38;;
58250;SDS011;51449;51.676;5.812;2022-07-29T13:22:39;7.72;;;3.38;;
58250;SDS011;51449;51.676;5.812;2022-07-29T13:25:08;4.03;;;3.55;;
58250;SDS011;51449;51.676;5.812;2022-07-29T13:27:31;4.57;;;3.15;;
58250;SDS011;51449;51.676;5.812;2022-07-29T13:29:58;5.05;;;2.70;;
58250;SDS011;51449;51.676;5.812;2022-07-29T13:32:22;5.53;;;3.67;;
58250;SDS011;51449;51.676;5.812;2022-07-29T13:34:49;3.85;;;2.67;;
58250;SDS011;51449;51.676;5.812;2022-07-29T13:37:11;7.63;;;3.17;;
58250;SDS011;51449;51.676;5.812;2022-07-29T13:39:33;5.80;;;2.60;;
58250;SDS011;51449;51.676;5.812;2022-07-29T13:41:55;4.55;;;3.00;;
58250;SDS011;51449;51.676;5.812;2022-07-29T13:44:18;5.30;;;2.78;;
58250;SDS011;51449;51.676;5.812;2022-07-29T13:46:39;3.35;;;2.58;;
58250;SDS011;51449;51.676;5.812;2022-07-29T13:49:01;6.07;;;2.75;;
58250;SDS011;51449;51.676;5.812;2022-07-29T13:51:23;6.72;;;3.00;;
58250;SDS011;51449;51.676;5.812;2022-07-29T13:53:45;3.80;;;2.85;;
58250;SDS011;51449;51.676;5.812;2022-07-29T13:56:07;4.25;;;2.92;;
58250;SDS011;51449;51.676;5.812;2022-07-29T13:58:29;6.05;;;3.05;;
58250;SDS011;51449;51.676;5.812;2022-07-29T14:00:51;4.85;;;2.60;;
58250;SDS011;51449;51.676;5.812;2022-07-29T14:03:13;4.72;;;2.65;;
58250;SDS011;51449;51.676;5.812;2022-07-29T14:05:35;4.85;;;3.10;;
58250;SDS011;51449;51.676;5.812;2022-07-29T14:07:56;6.88;;;3.05;;
58250;SDS011;51449;51.676;5.812;2022-07-29T14:10:18;4.78;;;2.80;;
58250;SDS011;51449;51.676;5.812;2022-07-29T14:12:40;5.95;;;3.28;;
58250;SDS011;51449;51.676;5.812;2022-07-29T14:15:03;3.88;;;2.78;;
58250;SDS011;51449;51.676;5.812;2022-07-29T14:17:26;6.20;;;3.35;;
58250;SDS011;51449;51.676;5.812;2022-07-29T14:19:48;7.13;;;3.20;;
58250;SDS011;51449;51.676;5.812;2022-07-29T14:22:10;5.93;;;3.17;;
58250;SDS011;51449;51.676;5.812;2022-07-29T14:24:32;7.28;;;2.97;;
58250;SDS011;51449;51.676;5.812;2022-07-29T14:26:57;6.07;;;3.05;;
58250;SDS011;51449;51.676;5.812;2022-07-29T14:29:20;6.80;;;3.83;;
58250;SDS011;51449;51.676;5.812;2022-07-29T14:31:43;5.78;;;3.00;;
58250;SDS011;51449;51.676;5.812;2022-07-29T14:34:05;5.88;;;3.42;;
58250;SDS011;51449;51.676;5.812;2022-07-29T14:36:27;4.97;;;3.45;;
58250;SDS011;51449;51.676;5.812;2022-07-29T14:38:48;4.55;;;3.20;;
58250;SDS011;51449;51.676;5.812;2022-07-29T14:41:11;4.05;;;2.67;;
58250;SDS011;51449;51.676;5.812;2022-07-29T14:43:33;4.40;;;3.08;;
58250;SDS011;51449;51.676;5.812;2022-07-29T14:45:56;6.13;;;3.13;;
58250;SDS011;51449;51.676;5.812;2022-07-29T14:48:25;4.57;;;2.97;;
58250;SDS011;51449;51.676;5.812;2022-07-29T14:50:47;8.10;;;3.40;;
58250;SDS011;51449;51.676;5.812;2022-07-29T14:53:09;6.63;;;2.70;;
58250;SDS011;51449;51.676;5.812;2022-07-29T14:55:33;3.25;;;2.63;;
58250;SDS011;51449;51.676;5.812;2022-07-29T14:57:55;4.40;;;2.67;;
58250;SDS011;51449;51.676;5.812;2022-07-29T15:00:30;2.92;;;2.50;;
58250;SDS011;51449;51.676;5.812;2022-07-29T15:02:53;4.20;;;2.93;;
58250;SDS011;51449;51.676;5.812;2022-07-29T15:05:23;6.50;;;2.80;;
58250;SDS011;51449;51.676;5.812;2022-07-29T15:07:45;3.80;;;2.80;;
58250;SDS011;51449;51.676;5.812;2022-07-29T15:10:07;3.00;;;2.35;;
58250;SDS011;51449;51.676;5.812;2022-07-29T15:12:29;4.25;;;2.60;;
58250;SDS011;51449;51.676;5.812;2022-07-29T15:14:52;4.18;;;2.72;;
58250;SDS011;51449;51.676;5.812;2022-07-29T15:17:14;5.25;;;2.47;;
58250;SDS011;51449;51.676;5.812;2022-07-29T15:19:36;5.85;;;2.70;;
58250;SDS011;51449;51.676;5.812;2022-07-29T15:21:58;5.43;;;2.70;;
58250;SDS011;51449;51.676;5.812;2022-07-29T15:24:21;3.55;;;2.42;;
58250;SDS011;51449;51.676;5.812;2022-07-29T15:26:43;3.70;;;2.63;;
58250;SDS011;51449;51.676;5.812;2022-07-29T15:29:05;4.40;;;2.97;;
58250;SDS011;51449;51.676;5.812;2022-07-29T15:31:27;3.30;;;2.85;;
58250;SDS011;51449;51.676;5.812;2022-07-29T15:33:49;12.20;;;3.25;;
58250;SDS011;51449;51.676;5.812;2022-07-29T15:36:17;9.77;;;2.90;;
58250;SDS011;51449;51.676;5.812;2022-07-29T15:38:59;5.57;;;2.83;;
58250;SDS011;51449;51.676;5.812;2022-07-29T15:41:21;5.93;;;2.90;;
58250;SDS011;51449;51.676;5.812;2022-07-29T15:43:43;4.78;;;2.30;;
58250;SDS011;51449;51.676;5.812;2022-07-29T15:46:08;6.45;;;2.97;;
58250;SDS011;51449;51.676;5.812;2022-07-29T15:48:48;6.45;;;2.80;;
58250;SDS011;51449;51.676;5.812;2022-07-29T15:51:10;5.05;;;3.05;;
58250;SDS011;51449;51.676;5.812;2022-07-29T15:53:33;5.05;;;3.28;;